Terminal Aerodrome Forecast
Issued by NWS Paducah, KY

Home | Current Version | Previous Version | Graphics & Text | Print | Product List | Glossary On
Versions: 1 2 3 4 5 6 7 8 9 10 11 12 13 14 15 16 17
115
FTUS43 KPAH 301419 AAB
TAFPAH
TAF AMD
KPAH 301419Z 3014/0112 12009KT P6SM VCSH SCT006 BKN035
     FM301600 15010G20KT P6SM SCT035 BKN150
     FM302300 18006KT P6SM SCT040 BKN250 PROB30 0101/0107 4SM TSRA
      BKN035CB
     FM010700 22003KT 4SM BR BKN007=

USA.gov is the U.S. government's official web portal to all federal, state and local government web resources and services.